sensor_id;sensor_type;location;lat;lon;timestamp;temperature;humidity
68051;DHT22;54839;51.364;7.246;2023-04-01T00:02:06;8.80;99.90
68051;DHT22;54839;51.364;7.246;2023-04-01T00:04:31;8.80;99.90
68051;DHT22;54839;51.364;7.246;2023-04-01T00:06:58;8.70;99.90
68051;DHT22;54839;51.364;7.246;2023-04-01T00:09:23;8.70;99.90
68051;DHT22;54839;51.364;7.246;2023-04-01T00:11:49;8.70;99.90
68051;DHT22;54839;51.364;7.246;2023-04-01T00:14:14;8.70;99.90
68051;DHT22;54839;51.364;7.246;2023-04-01T00:16:40;8.80;99.90
68051;DHT22;54839;51.364;7.246;2023-04-01T00:19:06;8.70;99.90
68051;DHT22;54839;51.364;7.246;2023-04-01T00:21:31;8.70;99.90
68051;DHT22;54839;51.364;7.246;2023-04-01T00:23:57;8.70;99.90
68051;DHT22;54839;51.364;7.246;2023-04-01T00:26:23;8.80;99.90
68051;DHT22;54839;51.364;7.246;2023-04-01T00:28:50;8.60;99.90
68051;DHT22;54839;51.364;7.246;2023-04-01T00:31:16;8.70;99.90
68051;DHT22;54839;51.364;7.246;2023-04-01T00:33:41;8.70;99.90
68051;DHT22;54839;51.364;7.246;2023-04-01T00:36:11;8.70;99.90
68051;DHT22;54839;51.364;7.246;2023-04-01T00:38:37;8.70;99.90
68051;DHT22;54839;51.364;7.246;2023-04-01T00:41:03;8.60;99.90
68051;DHT22;54839;51.364;7.246;2023-04-01T00:43:29;8.50;99.90
68051;DHT22;54839;51.364;7.246;2023-04-01T00:45:55;8.60;99.90
68051;DHT22;54839;51.364;7.246;2023-04-01T00:48:36;8.60;99.90
68051;DHT22;54839;51.364;7.246;2023-04-01T00:51:14;8.60;99.90
68051;DHT22;54839;51.364;7.246;2023-04-01T00:53:47;8.60;99.90
68051;DHT22;54839;51.364;7.246;2023-04-01T00:56:18;8.70;99.90
68051;DHT22;54839;51.364;7.246;2023-04-01T00:58:50;8.60;99.90
68051;DHT22;54839;51.364;7.246;2023-04-01T01:01:16;8.60;99.90
68051;DHT22;54839;51.364;7.246;2023-04-01T01:03:42;8.60;99.90
68051;DHT22;54839;51.364;7.246;2023-04-01T01:11:59;8.50;99.90
68051;DHT22;54839;51.364;7.246;2023-04-01T01:17:32;8.50;99.90
68051;DHT22;54839;51.364;7.246;2023-04-01T01:25:32;8.50;99.90
68051;DHT22;54839;51.364;7.246;2023-04-01T01:28:24;8.50;99.90
68051;DHT22;54839;51.364;7.246;2023-04-01T01:33:44;8.50;99.90
68051;DHT22;54839;51.364;7.246;2023-04-01T01:36:14;8.60;99.90
68051;DHT22;54839;51.364;7.246;2023-04-01T01:38:41;8.50;99.90
68051;DHT22;54839;51.364;7.246;2023-04-01T01:41:08;8.50;99.90
68051;DHT22;54839;51.364;7.246;2023-04-01T01:43:40;8.40;99.90
68051;DHT22;54839;51.364;7.246;2023-04-01T01:46:14;8.50;99.90
68051;DHT22;54839;51.364;7.246;2023-04-01T01:48:42;8.50;99.90
68051;DHT22;54839;51.364;7.246;2023-04-01T01:51:08;8.50;99.90
68051;DHT22;54839;51.364;7.246;2023-04-01T01:53:35;8.50;99.90
68051;DHT22;54839;51.364;7.246;2023-04-01T01:56:00;8.50;99.90
68051;DHT22;54839;51.364;7.246;2023-04-01T01:58:33;8.40;99.90
68051;DHT22;54839;51.364;7.246;2023-04-01T02:01:08;8.50;99.90
68051;DHT22;54839;51.364;7.246;2023-04-01T02:03:37;8.50;99.90
68051;DHT22;54839;51.364;7.246;2023-04-01T02:06:08;8.50;99.90
68051;DHT22;54839;51.364;7.246;2023-04-01T02:08:43;8.50;99.90
68051;DHT22;54839;51.364;7.246;2023-04-01T02:11:12;8.40;99.90
68051;DHT22;54839;51.364;7.246;2023-04-01T02:13:44;8.30;99.90
68051;DHT22;54839;51.364;7.246;2023-04-01T02:16:15;8.40;99.90
68051;DHT22;54839;51.364;7.246;2023-04-01T02:18:43;8.40;99.90
68051;DHT22;54839;51.364;7.246;2023-04-01T02:21:11;8.40;99.90
68051;DHT22;54839;51.364;7.246;2023-04-01T02:23:38;8.40;99.90
68051;DHT22;54839;51.364;7.246;2023-04-01T02:26:06;8.50;99.90
68051;DHT22;54839;51.364;7.246;2023-04-01T02:28:33;8.30;99.90
68051;DHT22;54839;51.364;7.246;2023-04-01T02:31:01;8.30;99.90
68051;DHT22;54839;51.364;7.246;2023-04-01T02:33:28;8.40;99.90
68051;DHT22;54839;51.364;7.246;2023-04-01T02:35:54;8.30;99.90
68051;DHT22;54839;51.364;7.246;2023-04-01T02:38:20;8.40;99.90
68051;DHT22;54839;51.364;7.246;2023-04-01T02:40:56;8.40;99.90
68051;DHT22;54839;51.364;7.246;2023-04-01T02:43:21;8.30;99.90
68051;DHT22;54839;51.364;7.246;2023-04-01T02:45:47;8.40;99.90
68051;DHT22;54839;51.364;7.246;2023-04-01T02:48:12;8.40;99.90
68051;DHT22;54839;51.364;7.246;2023-04-01T02:50:39;8.30;99.90
68051;DHT22;54839;51.364;7.246;2023-04-01T02:53:05;8.30;99.90
68051;DHT22;54839;51.364;7.246;2023-04-01T02:55:32;8.30;99.90
68051;DHT22;54839;51.364;7.246;2023-04-01T02:57:57;8.50;99.90
68051;DHT22;54839;51.364;7.246;2023-04-01T03:00:23;8.40;99.90
68051;DHT22;54839;51.364;7.246;2023-04-01T03:02:49;8.30;99.90
68051;DHT22;54839;51.364;7.246;2023-04-01T03:05:14;8.30;99.90
68051;DHT22;54839;51.364;7.246;2023-04-01T03:07:40;8.30;99.90
68051;DHT22;54839;51.364;7.246;2023-04-01T03:10:06;8.30;99.90
68051;DHT22;54839;51.364;7.246;2023-04-01T03:12:32;8.30;99.90
68051;DHT22;54839;51.364;7.246;2023-04-01T03:14:57;8.30;99.90
68051;DHT22;54839;51.364;7.246;2023-04-01T03:17:23;8.30;99.90
68051;DHT22;54839;51.364;7.246;2023-04-01T03:19:48;8.30;99.90
68051;DHT22;54839;51.364;7.246;2023-04-01T03:22:14;8.20;99.90
68051;DHT22;54839;51.364;7.246;2023-04-01T03:24:40;8.30;99.90
68051;DHT22;54839;51.364;7.246;2023-04-01T03:27:06;8.20;99.90
68051;DHT22;54839;51.364;7.246;2023-04-01T03:29:31;8.20;99.90
68051;DHT22;54839;51.364;7.246;2023-04-01T03:31:57;8.30;99.90
68051;DHT22;54839;51.364;7.246;2023-04-01T03:34:24;8.20;99.90
68051;DHT22;54839;51.364;7.246;2023-04-01T03:36:51;8.20;99.90
68051;DHT22;54839;51.364;7.246;2023-04-01T03:39:16;8.20;99.90
68051;DHT22;54839;51.364;7.246;2023-04-01T03:41:44;8.20;99.90
68051;DHT22;54839;51.364;7.246;2023-04-01T03:44:10;8.10;99.90
68051;DHT22;54839;51.364;7.246;2023-04-01T03:46:36;8.10;99.90
68051;DHT22;54839;51.364;7.246;2023-04-01T03:49:01;8.00;99.90
68051;DHT22;54839;51.364;7.246;2023-04-01T03:51:27;8.10;99.90
68051;DHT22;54839;51.364;7.246;2023-04-01T03:53:52;8.20;99.90
68051;DHT22;54839;51.364;7.246;2023-04-01T03:56:18;8.10;99.90
68051;DHT22;54839;51.364;7.246;2023-04-01T03:58:43;8.10;99.90
68051;DHT22;54839;51.364;7.246;2023-04-01T04:01:20;8.20;99.90
68051;DHT22;54839;51.364;7.246;2023-04-01T04:03:46;8.20;99.90
68051;DHT22;54839;51.364;7.246;2023-04-01T04:06:14;8.10;99.90
68051;DHT22;54839;51.364;7.246;2023-04-01T04:08:40;8.10;99.90
68051;DHT22;54839;51.364;7.246;2023-04-01T04:11:05;8.10;99.90
68051;DHT22;54839;51.364;7.246;2023-04-01T04:13:31;8.20;99.90
68051;DHT22;54839;51.364;7.246;2023-04-01T04:15:56;8.20;99.90
68051;DHT22;54839;51.364;7.246;2023-04-01T04:18:23;8.20;99.90
68051;DHT22;54839;51.364;7.246;2023-04-01T04:20:48;8.20;99.90
68051;DHT22;54839;51.364;7.246;2023-04-01T04:23:16;8.20;99.90
68051;DHT22;54839;51.364;7.246;2023-04-01T04:26:00;8.20;99.90
68051;DHT22;54839;51.364;7.246;2023-04-01T04:28:26;8.30;99.90
68051;DHT22;54839;51.364;7.246;2023-04-01T04:30:53;8.30;99.90
68051;DHT22;54839;51.364;7.246;2023-04-01T04:33:19;8.30;99.90
68051;DHT22;54839;51.364;7.246;2023-04-01T04:35:45;8.20;99.90
68051;DHT22;54839;51.364;7.246;2023-04-01T04:38:10;8.20;99.90
68051;DHT22;54839;51.364;7.246;2023-04-01T04:40:40;8.30;99.90
68051;DHT22;54839;51.364;7.246;2023-04-01T04:43:06;8.30;99.90
68051;DHT22;54839;51.364;7.246;2023-04-01T04:45:32;8.30;99.90
68051;DHT22;54839;51.364;7.246;2023-04-01T04:47:58;8.40;99.90
68051;DHT22;54839;51.364;7.246;2023-04-01T04:50:24;8.30;99.90
68051;DHT22;54839;51.364;7.246;2023-04-01T04:52:50;8.30;99.90
68051;DHT22;54839;51.364;7.246;2023-04-01T04:55:16;8.40;99.90
68051;DHT22;54839;51.364;7.246;2023-04-01T04:57:41;8.40;99.90
68051;DHT22;54839;51.364;7.246;2023-04-01T05:00:08;8.40;99.90
68051;DHT22;54839;51.364;7.246;2023-04-01T05:02:35;8.30;99.90
68051;DHT22;54839;51.364;7.246;2023-04-01T05:05:01;8.40;99.90
68051;DHT22;54839;51.364;7.246;2023-04-01T05:07:26;8.30;99.90
68051;DHT22;54839;51.364;7.246;2023-04-01T05:09:52;8.30;99.90
68051;DHT22;54839;51.364;7.246;2023-04-01T05:12:17;8.40;99.90
68051;DHT22;54839;51.364;7.246;2023-04-01T05:14:43;8.30;99.90
68051;DHT22;54839;51.364;7.246;2023-04-01T05:17:10;8.30;99.90
68051;DHT22;54839;51.364;7.246;2023-04-01T05:19:37;8.40;99.90
68051;DHT22;54839;51.364;7.246;2023-04-01T05:22:02;8.40;99.90
68051;DHT22;54839;51.364;7.246;2023-04-01T05:24:28;8.40;99.90
68051;DHT22;54839;51.364;7.246;2023-04-01T05:26:54;8.30;99.90
68051;DHT22;54839;51.364;7.246;2023-04-01T05:29:20;8.50;99.90
68051;DHT22;54839;51.364;7.246;2023-04-01T05:31:45;8.40;99.90
68051;DHT22;54839;51.364;7.246;2023-04-01T05:34:11;8.50;99.90
68051;DHT22;54839;51.364;7.246;2023-04-01T05:36:37;8.50;99.90
68051;DHT22;54839;51.364;7.246;2023-04-01T05:39:02;8.40;99.90
68051;DHT22;54839;51.364;7.246;2023-04-01T05:41:28;8.40;99.90
68051;DHT22;54839;51.364;7.246;2023-04-01T05:43:54;8.50;99.90
68051;DHT22;54839;51.364;7.246;2023-04-01T05:46:20;8.50;99.90
68051;DHT22;54839;51.364;7.246;2023-04-01T05:48:46;8.50;99.90
68051;DHT22;54839;51.364;7.246;2023-04-01T05:51:13;8.50;99.90
68051;DHT22;54839;51.364;7.246;2023-04-01T05:53:40;8.60;99.90
68051;DHT22;54839;51.364;7.246;2023-04-01T05:56:06;8.50;99.90
68051;DHT22;54839;51.364;7.246;2023-04-01T05:58:33;8.50;99.90
68051;DHT22;54839;51.364;7.246;2023-04-01T06:01:07;8.40;99.90
68051;DHT22;54839;51.364;7.246;2023-04-01T06:03:33;8.50;99.90
68051;DHT22;54839;51.364;7.246;2023-04-01T06:05:59;8.50;99.90
68051;DHT22;54839;51.364;7.246;2023-04-01T06:08:27;8.50;99.90
68051;DHT22;54839;51.364;7.246;2023-04-01T06:25:51;8.60;99.90
68051;DHT22;54839;51.364;7.246;2023-04-01T06:31:16;8.50;99.90
68051;DHT22;54839;51.364;7.246;2023-04-01T06:34:12;8.60;99.90
68051;DHT22;54839;51.364;7.246;2023-04-01T06:42:44;8.60;99.90
68051;DHT22;54839;51.364;7.246;2023-04-01T06:53:50;8.60;99.90
68051;DHT22;54839;51.364;7.246;2023-04-01T06:56:21;8.70;99.90
68051;DHT22;54839;51.364;7.246;2023-04-01T06:58:58;8.60;99.90
68051;DHT22;54839;51.364;7.246;2023-04-01T07:01:33;8.60;99.90
68051;DHT22;54839;51.364;7.246;2023-04-01T07:04:05;8.60;99.90
68051;DHT22;54839;51.364;7.246;2023-04-01T07:06:35;8.50;99.90
68051;DHT22;54839;51.364;7.246;2023-04-01T07:09:06;8.60;99.90
68051;DHT22;54839;51.364;7.246;2023-04-01T07:11:37;8.70;99.90
68051;DHT22;54839;51.364;7.246;2023-04-01T07:14:10;8.70;99.90
68051;DHT22;54839;51.364;7.246;2023-04-01T07:16:50;8.70;99.90
68051;DHT22;54839;51.364;7.246;2023-04-01T07:22:45;8.70;99.90
68051;DHT22;54839;51.364;7.246;2023-04-01T07:25:37;8.70;99.90
68051;DHT22;54839;51.364;7.246;2023-04-01T07:28:10;8.80;99.90
68051;DHT22;54839;51.364;7.246;2023-04-01T07:30:53;8.90;99.90
68051;DHT22;54839;51.364;7.246;2023-04-01T07:39:08;8.90;99.90
68051;DHT22;54839;51.364;7.246;2023-04-01T07:41:55;8.90;99.90
68051;DHT22;54839;51.364;7.246;2023-04-01T07:44:37;8.90;99.90
68051;DHT22;54839;51.364;7.246;2023-04-01T07:47:34;8.80;99.90
68051;DHT22;54839;51.364;7.246;2023-04-01T07:50:26;8.90;99.90
68051;DHT22;54839;51.364;7.246;2023-04-01T07:55:30;8.90;99.90
68051;DHT22;54839;51.364;7.246;2023-04-01T07:58:14;8.90;99.90
68051;DHT22;54839;51.364;7.246;2023-04-01T08:03:44;8.90;99.90
68051;DHT22;54839;51.364;7.246;2023-04-01T08:06:31;8.90;99.90
68051;DHT22;54839;51.364;7.246;2023-04-01T08:09:14;9.00;99.90
68051;DHT22;54839;51.364;7.246;2023-04-01T08:12:09;8.90;99.90
68051;DHT22;54839;51.364;7.246;2023-04-01T08:17:48;8.90;99.90
68051;DHT22;54839;51.364;7.246;2023-04-01T08:28:34;8.90;99.90
68051;DHT22;54839;51.364;7.246;2023-04-01T08:31:20;8.90;99.90
68051;DHT22;54839;51.364;7.246;2023-04-01T08:33:49;8.90;99.90
68051;DHT22;54839;51.364;7.246;2023-04-01T08:36:27;8.90;99.90
68051;DHT22;54839;51.364;7.246;2023-04-01T08:38:57;9.00;99.90
68051;DHT22;54839;51.364;7.246;2023-04-01T08:41:48;9.10;99.90
68051;DHT22;54839;51.364;7.246;2023-04-01T08:54:48;8.90;99.90
68051;DHT22;54839;51.364;7.246;2023-04-01T08:57:51;8.90;99.90
68051;DHT22;54839;51.364;7.246;2023-04-01T09:00:31;9.00;99.90
68051;DHT22;54839;51.364;7.246;2023-04-01T09:03:20;9.00;99.90
68051;DHT22;54839;51.364;7.246;2023-04-01T09:06:02;9.00;99.90
68051;DHT22;54839;51.364;7.246;2023-04-01T09:19:21;9.10;99.90
68051;DHT22;54839;51.364;7.246;2023-04-01T09:24:46;9.30;99.90
68051;DHT22;54839;51.364;7.246;2023-04-01T09:27:27;9.20;99.90
68051;DHT22;54839;51.364;7.246;2023-04-01T09:32:54;9.10;99.90
68051;DHT22;54839;51.364;7.246;2023-04-01T09:41:15;9.10;99.90
68051;DHT22;54839;51.364;7.246;2023-04-01T09:44:12;9.10;99.90
68051;DHT22;54839;51.364;7.246;2023-04-01T09:47:10;9.20;99.90
68051;DHT22;54839;51.364;7.246;2023-04-01T09:52:17;9.20;99.90
68051;DHT22;54839;51.364;7.246;2023-04-01T10:01:06;9.30;99.90
68051;DHT22;54839;51.364;7.246;2023-04-01T10:09:47;9.40;99.90
68051;DHT22;54839;51.364;7.246;2023-04-01T10:15:25;9.70;99.90
68051;DHT22;54839;51.364;7.246;2023-04-01T10:34:56;9.90;99.90
68051;DHT22;54839;51.364;7.246;2023-04-01T10:43:23;9.70;99.90
68051;DHT22;54839;51.364;7.246;2023-04-01T10:57:11;9.60;99.90
68051;DHT22;54839;51.364;7.246;2023-04-01T11:08:48;9.70;99.90
68051;DHT22;54839;51.364;7.246;2023-04-01T11:15:22;9.60;99.90
68051;DHT22;54839;51.364;7.246;2023-04-01T11:23:25;9.70;99.90
68051;DHT22;54839;51.364;7.246;2023-04-01T11:26:20;9.60;99.90
68051;DHT22;54839;51.364;7.246;2023-04-01T11:29:18;9.70;99.90
68051;DHT22;54839;51.364;7.246;2023-04-01T11:34:59;9.40;99.90
68051;DHT22;54839;51.364;7.246;2023-04-01T11:37:43;9.40;99.90
68051;DHT22;54839;51.364;7.246;2023-04-01T11:42:57;9.30;99.90
68051;DHT22;54839;51.364;7.246;2023-04-01T11:50:52;9.50;99.90
68051;DHT22;54839;51.364;7.246;2023-04-01T11:53:39;9.60;99.90
68051;DHT22;54839;51.364;7.246;2023-04-01T11:56:38;9.70;99.90
68051;DHT22;54839;51.364;7.246;2023-04-01T12:02:09;9.60;99.90
68051;DHT22;54839;51.364;7.246;2023-04-01T12:04:39;9.50;99.90
68051;DHT22;54839;51.364;7.246;2023-04-01T12:07:21;9.50;99.90
68051;DHT22;54839;51.364;7.246;2023-04-01T12:10:15;9.40;99.90
68051;DHT22;54839;51.364;7.246;2023-04-01T12:12:54;9.50;99.90
68051;DHT22;54839;51.364;7.246;2023-04-01T12:18:30;9.40;99.90
68051;DHT22;54839;51.364;7.246;2023-04-01T12:21:22;9.50;99.90
68051;DHT22;54839;51.364;7.246;2023-04-01T12:35:27;9.50;99.90
68051;DHT22;54839;51.364;7.246;2023-04-01T12:40:37;9.50;99.90
68051;DHT22;54839;51.364;7.246;2023-04-01T12:46:15;9.50;99.90
68051;DHT22;54839;51.364;7.246;2023-04-01T12:51:46;9.70;99.90
68051;DHT22;54839;51.364;7.246;2023-04-01T12:57:18;9.60;99.90
68051;DHT22;54839;51.364;7.246;2023-04-01T13:05:39;9.50;99.90
68051;DHT22;54839;51.364;7.246;2023-04-01T13:11:08;9.60;99.90
68051;DHT22;54839;51.364;7.246;2023-04-01T13:13:58;9.70;99.90
68051;DHT22;54839;51.364;7.246;2023-04-01T13:16:29;9.80;99.90
68051;DHT22;54839;51.364;7.246;2023-04-01T13:19:13;10.10;99.90
68051;DHT22;54839;51.364;7.246;2023-04-01T13:22:15;9.90;99.90
68051;DHT22;54839;51.364;7.246;2023-04-01T13:25:00;10.00;99.90
68051;DHT22;54839;51.364;7.246;2023-04-01T13:27:41;9.90;99.90
68051;DHT22;54839;51.364;7.246;2023-04-01T13:30:33;10.00;99.90
68051;DHT22;54839;51.364;7.246;2023-04-01T13:33:27;9.90;99.90
68051;DHT22;54839;51.364;7.246;2023-04-01T13:36:28;10.00;99.90
68051;DHT22;54839;51.364;7.246;2023-04-01T13:39:09;10.10;99.90
68051;DHT22;54839;51.364;7.246;2023-04-01T13:44:22;9.90;99.90
68051;DHT22;54839;51.364;7.246;2023-04-01T13:52:23;9.80;99.90
68051;DHT22;54839;51.364;7.246;2023-04-01T13:54:55;9.70;99.90
68051;DHT22;54839;51.364;7.246;2023-04-01T13:57:47;9.70;99.90
68051;DHT22;54839;51.364;7.246;2023-04-01T14:00:35;9.70;99.90
68051;DHT22;54839;51.364;7.246;2023-04-01T14:11:17;9.50;99.90
68051;DHT22;54839;51.364;7.246;2023-04-01T14:22:35;9.40;99.90
68051;DHT22;54839;51.364;7.246;2023-04-01T14:28:18;9.50;99.90
68051;DHT22;54839;51.364;7.246;2023-04-01T14:37:04;9.60;99.90
68051;DHT22;54839;51.364;7.246;2023-04-01T14:42:41;9.50;99.90
68051;DHT22;54839;51.364;7.246;2023-04-01T14:48:23;9.50;99.90
68051;DHT22;54839;51.364;7.246;2023-04-01T14:50:55;9.50;99.90
68051;DHT22;54839;51.364;7.246;2023-04-01T14:56:00;9.50;99.90
68051;DHT22;54839;51.364;7.246;2023-04-01T14:58:57;9.50;99.90
68051;DHT22;54839;51.364;7.246;2023-04-01T15:01:32;9.30;99.90
68051;DHT22;54839;51.364;7.246;2023-04-01T15:04:35;9.40;99.90
68051;DHT22;54839;51.364;7.246;2023-04-01T15:13:15;9.40;99.90
68051;DHT22;54839;51.364;7.246;2023-04-01T15:16:09;9.30;99.90
68051;DHT22;54839;51.364;7.246;2023-04-01T15:19:02;9.30;99.90
68051;DHT22;54839;51.364;7.246;2023-04-01T15:24:38;9.30;99.90
68051;DHT22;54839;51.364;7.246;2023-04-01T15:27:37;9.30;99.90
68051;DHT22;54839;51.364;7.246;2023-04-01T15:30:27;9.40;99.90
68051;DHT22;54839;51.364;7.246;2023-04-01T15:39:10;9.40;99.90
68051;DHT22;54839;51.364;7.246;2023-04-01T15:41:41;9.40;99.90
68051;DHT22;54839;51.364;7.246;2023-04-01T15:46:52;9.40;99.90
68051;DHT22;54839;51.364;7.246;2023-04-01T15:49:37;9.50;99.90
68051;DHT22;54839;51.364;7.246;2023-04-01T15:52:21;9.50;99.90
68051;DHT22;54839;51.364;7.246;2023-04-01T16:00:48;9.50;99.90
68051;DHT22;54839;51.364;7.246;2023-04-01T16:03:37;9.50;99.90
68051;DHT22;54839;51.364;7.246;2023-04-01T16:11:57;9.50;99.90
68051;DHT22;54839;51.364;7.246;2023-04-01T16:17:22;9.50;99.90
68051;DHT22;54839;51.364;7.246;2023-04-01T16:20:02;9.40;99.90
68051;DHT22;54839;51.364;7.246;2023-04-01T16:22:40;9.40;99.90
68051;DHT22;54839;51.364;7.246;2023-04-01T16:28:17;9.40;99.90
68051;DHT22;54839;51.364;7.246;2023-04-01T16:38:55;9.40;99.90
68051;DHT22;54839;51.364;7.246;2023-04-01T16:41:37;9.30;99.90
68051;DHT22;54839;51.364;7.246;2023-04-01T16:44:21;9.30;99.90
68051;DHT22;54839;51.364;7.246;2023-04-01T16:46:58;9.20;99.90
68051;DHT22;54839;51.364;7.246;2023-04-01T16:52:53;9.30;99.90
68051;DHT22;54839;51.364;7.246;2023-04-01T16:55:55;9.30;99.90
68051;DHT22;54839;51.364;7.246;2023-04-01T16:58:32;9.30;99.90
68051;DHT22;54839;51.364;7.246;2023-04-01T17:01:29;9.20;99.90
68051;DHT22;54839;51.364;7.246;2023-04-01T17:04:06;9.30;99.90
68051;DHT22;54839;51.364;7.246;2023-04-01T17:06:49;9.20;99.90
68051;DHT22;54839;51.364;7.246;2023-04-01T17:15:40;9.30;99.90
68051;DHT22;54839;51.364;7.246;2023-04-01T17:18:30;9.20;99.90
68051;DHT22;54839;51.364;7.246;2023-04-01T17:21:10;9.30;99.90
68051;DHT22;54839;51.364;7.246;2023-04-01T17:24:07;9.20;99.90
68051;DHT22;54839;51.364;7.246;2023-04-01T17:26:37;9.20;99.90
68051;DHT22;54839;51.364;7.246;2023-04-01T17:29:14;9.30;99.90
68051;DHT22;54839;51.364;7.246;2023-04-01T17:31:52;9.30;99.90
68051;DHT22;54839;51.364;7.246;2023-04-01T17:37:12;9.20;99.90
68051;DHT22;54839;51.364;7.246;2023-04-01T17:39:54;9.20;99.90
68051;DHT22;54839;51.364;7.246;2023-04-01T17:43:32;9.20;99.90
68051;DHT22;54839;51.364;7.246;2023-04-01T17:45:54;9.20;99.90
68051;DHT22;54839;51.364;7.246;2023-04-01T17:57:10;9.20;99.90
68051;DHT22;54839;51.364;7.246;2023-04-01T17:59:49;9.10;99.90
68051;DHT22;54839;51.364;7.246;2023-04-01T18:10:49;9.10;99.90
68051;DHT22;54839;51.364;7.246;2023-04-01T18:21:11;9.10;99.90
68051;DHT22;54839;51.364;7.246;2023-04-01T18:27:15;9.20;99.90
68051;DHT22;54839;51.364;7.246;2023-04-01T18:30:07;9.20;99.90
68051;DHT22;54839;51.364;7.246;2023-04-01T18:32:48;9.10;99.90
68051;DHT22;54839;51.364;7.246;2023-04-01T18:41:05;9.20;99.90
68051;DHT22;54839;51.364;7.246;2023-04-01T18:43:59;9.20;99.90
68051;DHT22;54839;51.364;7.246;2023-04-01T18:52:13;9.20;99.90
68051;DHT22;54839;51.364;7.246;2023-04-01T18:55:29;9.20;99.90
68051;DHT22;54839;51.364;7.246;2023-04-01T19:00:39;9.20;99.90
68051;DHT22;54839;51.364;7.246;2023-04-01T19:03:31;9.10;99.90
68051;DHT22;54839;51.364;7.246;2023-04-01T19:06:02;9.20;99.90
68051;DHT22;54839;51.364;7.246;2023-04-01T19:08:35;9.20;99.90
68051;DHT22;54839;51.364;7.246;2023-04-01T19:11:28;9.30;99.90
68051;DHT22;54839;51.364;7.246;2023-04-01T19:14:24;9.30;99.90
68051;DHT22;54839;51.364;7.246;2023-04-01T19:17:09;9.20;99.90
68051;DHT22;54839;51.364;7.246;2023-04-01T19:19:56;9.30;99.90
68051;DHT22;54839;51.364;7.246;2023-04-01T19:25:12;9.30;99.90
68051;DHT22;54839;51.364;7.246;2023-04-01T19:30:58;9.20;99.90
68051;DHT22;54839;51.364;7.246;2023-04-01T19:33:31;9.30;99.90
68051;DHT22;54839;51.364;7.246;2023-04-01T19:36:00;9.20;99.90
68051;DHT22;54839;51.364;7.246;2023-04-01T19:38:36;9.10;99.90
68051;DHT22;54839;51.364;7.246;2023-04-01T19:41:32;9.10;99.90
68051;DHT22;54839;51.364;7.246;2023-04-01T19:46:51;9.20;99.90
68051;DHT22;54839;51.364;7.246;2023-04-01T19:52:13;9.10;99.90
68051;DHT22;54839;51.364;7.246;2023-04-01T19:54:54;9.10;99.90
68051;DHT22;54839;51.364;7.246;2023-04-01T20:00:57;9.10;99.90
68051;DHT22;54839;51.364;7.246;2023-04-01T20:03:54;9.00;99.90
68051;DHT22;54839;51.364;7.246;2023-04-01T20:06:35;9.10;99.90
68051;DHT22;54839;51.364;7.246;2023-04-01T20:09:35;9.00;99.90
68051;DHT22;54839;51.364;7.246;2023-04-01T20:14:51;9.10;99.90
68051;DHT22;54839;51.364;7.246;2023-04-01T20:17:38;9.00;99.90
68051;DHT22;54839;51.364;7.246;2023-04-01T20:25:24;9.10;99.90
68051;DHT22;54839;51.364;7.246;2023-04-01T20:27:56;9.10;99.90
68051;DHT22;54839;51.364;7.246;2023-04-01T20:33:37;9.20;99.90
68051;DHT22;54839;51.364;7.246;2023-04-01T20:38:46;9.30;99.90
68051;DHT22;54839;51.364;7.246;2023-04-01T20:44:13;9.30;99.90
68051;DHT22;54839;51.364;7.246;2023-04-01T21:00:37;9.30;99.90
68051;DHT22;54839;51.364;7.246;2023-04-01T21:03:19;9.20;99.90
68051;DHT22;54839;51.364;7.246;2023-04-01T21:20:04;9.20;99.90
68051;DHT22;54839;51.364;7.246;2023-04-01T21:22:34;9.20;99.90
68051;DHT22;54839;51.364;7.246;2023-04-01T21:25:32;9.20;99.90
68051;DHT22;54839;51.364;7.246;2023-04-01T21:31:33;9.10;99.90
68051;DHT22;54839;51.364;7.246;2023-04-01T21:34:25;9.00;99.90
68051;DHT22;54839;51.364;7.246;2023-04-01T21:37:05;9.00;99.90
68051;DHT22;54839;51.364;7.246;2023-04-01T21:42:25;8.80;99.90
68051;DHT22;54839;51.364;7.246;2023-04-01T21:45:23;8.90;99.90
68051;DHT22;54839;51.364;7.246;2023-04-01T21:53:19;8.70;99.90
68051;DHT22;54839;51.364;7.246;2023-04-01T22:07:14;8.50;99.90
68051;DHT22;54839;51.364;7.246;2023-04-01T22:09:57;8.50;99.90
68051;DHT22;54839;51.364;7.246;2023-04-01T22:12:37;8.40;99.90
68051;DHT22;54839;51.364;7.246;2023-04-01T22:15:17;8.40;99.90
68051;DHT22;54839;51.364;7.246;2023-04-01T22:17:53;8.30;99.90
68051;DHT22;54839;51.364;7.246;2023-04-01T22:20:28;8.20;99.90
68051;DHT22;54839;51.364;7.246;2023-04-01T22:23:26;8.30;99.90
68051;DHT22;54839;51.364;7.246;2023-04-01T22:28:51;8.20;99.90
68051;DHT22;54839;51.364;7.246;2023-04-01T22:32:06;8.00;99.90
68051;DHT22;54839;51.364;7.246;2023-04-01T22:37:56;7.90;99.90
68051;DHT22;54839;51.364;7.246;2023-04-01T22:43:13;7.90;99.90
68051;DHT22;54839;51.364;7.246;2023-04-01T22:48:42;7.80;99.90
68051;DHT22;54839;51.364;7.246;2023-04-01T22:54:05;7.70;99.90
68051;DHT22;54839;51.364;7.246;2023-04-01T22:56:37;7.60;99.90
68051;DHT22;54839;51.364;7.246;2023-04-01T22:59:08;7.60;99.90
68051;DHT22;54839;51.364;7.246;2023-04-01T23:01:41;7.60;99.90
68051;DHT22;54839;51.364;7.246;2023-04-01T23:04:12;7.50;99.90
68051;DHT22;54839;51.364;7.246;2023-04-01T23:06:49;7.50;99.90
68051;DHT22;54839;51.364;7.246;2023-04-01T23:12:10;7.40;99.90
68051;DHT22;54839;51.364;7.246;2023-04-01T23:14:56;7.30;99.90
68051;DHT22;54839;51.364;7.246;2023-04-01T23:23:15;7.20;99.90
68051;DHT22;54839;51.364;7.246;2023-04-01T23:28:45;7.30;99.90
68051;DHT22;54839;51.364;7.246;2023-04-01T23:31:37;7.30;99.90
68051;DHT22;54839;51.364;7.246;2023-04-01T23:34:52;7.30;99.90
68051;DHT22;54839;51.364;7.246;2023-04-01T23:37:12;7.20;99.90
68051;DHT22;54839;51.364;7.246;2023-04-01T23:39:43;7.20;99.90
68051;DHT22;54839;51.364;7.246;2023-04-01T23:42:26;7.20;99.90
68051;DHT22;54839;51.364;7.246;2023-04-01T23:44:56;7.10;99.90
68051;DHT22;54839;51.364;7.246;2023-04-01T23:47:33;7.00;99.90
68051;DHT22;54839;51.364;7.246;2023-04-01T23:50:07;7.10;99.90
68051;DHT22;54839;51.364;7.246;2023-04-01T23:52:40;7.00;99.90
68051;DHT22;54839;51.364;7.246;2023-04-01T23:55:22;7.00;99.90
